Time;durP1;ratioP1;P1;durP2;ratioP2;P2;SDS_P1;SDS_P2;PMS_P1;PMS_P2;Temp;Humidity;BMP_temperature;BMP_pressure;BME280_temperature;BME280_humidity;BME280_pressure;Samples;Min_cycle;Max_cycle;Signal;HPM_P1;HPM_P2
2023/05/03 01:37:59;;;;;;;9.02;4.50;;;;;;;4.87;65.05;102412.69;5129138;27;20154;-61
2023/05/03 01:40:25;;;;;;;8.73;3.45;;;;;;;4.82;65.76;102419.63;5128051;27;20045;-61
2023/05/03 01:42:51;;;;;;;6.03;2.90;;;;;;;4.89;65.58;102410.94;5127063;28;20028;-61
2023/05/03 01:45:17;;;;;;;5.82;3.80;;;;;;;4.80;65.84;102410.91;5131666;27;20729;-61
2023/05/03 01:47:42;;;;;;;8.00;3.97;;;;;;;4.77;66.25;102411.78;5130024;27;20019;-61
2023/05/03 01:50:08;;;;;;;7.35;3.38;;;;;;;4.69;66.31;102409.97;5123241;27;20041;-61
2023/05/03 01:52:33;;;;;;;9.02;4.10;;;;;;;4.65;66.58;102410.84;5133963;27;20030;-61
2023/05/03 01:54:59;;;;;;;8.38;3.70;;;;;;;4.57;66.66;102414.25;5129183;27;20440;-61
2023/05/03 01:57:24;;;;;;;9.70;3.03;;;;;;;4.51;67.34;102414.25;5135602;27;20034;-61
2023/05/03 01:59:50;;;;;;;9.90;3.28;;;;;;;4.43;67.43;102413.34;5120810;27;20032;-62
2023/05/03 02:02:15;;;;;;;8.13;3.63;;;;;;;4.34;67.90;102410.63;5128503;27;20023;-61
2023/05/03 02:04:40;;;;;;;7.68;3.20;;;;;;;4.30;68.05;102411.47;5131787;27;20042;-62
2023/05/03 02:07:06;;;;;;;7.68;3.67;;;;;;;4.26;68.16;102417.56;5130886;27;20079;-62
2023/05/03 02:09:31;;;;;;;5.18;3.67;;;;;;;4.26;68.55;102422.81;5132594;27;20027;-62
2023/05/03 02:11:56;;;;;;;6.47;3.30;;;;;;;4.25;68.87;102416.69;5139090;27;20034;-62
2023/05/03 02:14:22;;;;;;;13.30;4.30;;;;;;;4.29;68.49;102423.69;5132674;27;20087;-62
2023/05/03 02:16:47;;;;;;;6.85;4.65;;;;;;;4.18;69.00;102426.22;5129856;27;20047;-62
2023/05/03 02:19:13;;;;;;;7.32;3.55;;;;;;;4.11;68.96;102421.81;5135944;27;20046;-62
2023/05/03 02:21:38;;;;;;;12.10;3.90;;;;;;;4.10;68.95;102422.66;5141727;27;20527;-62
2023/05/03 02:24:05;;;;;;;7.55;3.63;;;;;;;4.06;69.32;102427.88;5129204;27;20092;-62
2023/05/03 02:26:30;;;;;;;4.90;2.95;;;;;;;4.00;69.43;102433.94;5123085;27;20516;-62
2023/05/03 02:28:56;;;;;;;11.45;3.33;;;;;;;3.92;69.57;102427.75;5117081;27;20614;-62
2023/05/03 02:31:22;;;;;;;12.32;3.70;;;;;;;3.89;69.76;102432.97;5142549;27;20027;-62
2023/05/03 02:33:48;;;;;;;8.60;3.38;;;;;;;3.84;69.76;102433.81;5130175;27;20027;-62
2023/05/03 02:36:13;;;;;;;7.07;3.28;;;;;;;3.83;69.92;102432.03;5124820;27;20036;-62
2023/05/03 02:38:38;;;;;;;8.10;3.35;;;;;;;3.79;70.10;102435.50;5128508;27;20680;-61
2023/05/03 02:41:04;;;;;;;7.35;3.40;;;;;;;3.82;69.66;102443.34;5126877;27;20062;-61
2023/05/03 02:43:29;;;;;;;6.28;3.45;;;;;;;3.80;69.97;102439.84;5128946;27;20036;-62
2023/05/03 02:45:55;;;;;;;7.70;3.22;;;;;;;3.78;69.88;102436.34;5116735;27;20412;-62
2023/05/03 02:48:21;;;;;;;8.20;3.22;;;;;;;3.71;69.80;102434.56;5128367;27;20047;-61
2023/05/03 02:50:46;;;;;;;12.30;3.78;;;;;;;3.65;70.40;102439.72;5112570;28;20031;-62
2023/05/03 02:53:12;;;;;;;5.80;3.47;;;;;;;3.58;70.71;102443.13;5114755;28;20046;-62
2023/05/03 02:55:38;;;;;;;12.52;3.83;;;;;;;3.47;70.52;102445.63;5101458;27;20035;-62
2023/05/03 02:58:04;;;;;;;10.30;3.55;;;;;;;3.55;71.06;102448.31;5120775;27;20019;-62
2023/05/03 03:00:30;;;;;;;6.80;3.72;;;;;;;3.55;70.70;102453.53;5107359;28;20339;-62
2023/05/03 03:02:55;;;;;;;10.32;4.80;;;;;;;3.56;70.95;102458.78;5106592;28;20100;-61
2023/05/03 03:05:20;;;;;;;8.07;3.53;;;;;;;3.52;70.95;102456.16;5100467;28;20046;-61
2023/05/03 03:07:46;;;;;;;8.02;3.58;;;;;;;3.57;70.82;102457.06;5115456;27;20173;-61
2023/05/03 03:10:12;;;;;;;13.93;4.40;;;;;;;3.55;70.96;102456.16;5094947;28;20035;-61
2023/05/03 03:12:37;;;;;;;10.02;3.80;;;;;;;3.54;70.56;102463.13;5114705;27;20035;-61
2023/05/03 03:15:03;;;;;;;8.45;3.15;;;;;;;3.47;70.60;102463.94;5117604;27;20036;-62
2023/05/03 03:17:30;;;;;;;5.70;3.67;;;;;;;3.36;71.03;102466.41;5114427;28;20024;-62
2023/05/03 03:19:57;;;;;;;7.38;3.70;;;;;;;3.32;70.82;102469.88;5103803;28;20024;-62
2023/05/03 03:22:22;;;;;;;7.70;4.30;;;;;;;3.24;71.73;102466.28;5116931;27;20080;-61
2023/05/03 03:24:48;;;;;;;9.45;3.22;;;;;;;3.21;71.92;102463.63;5116837;27;20043;-62
2023/05/03 03:27:13;;;;;;;8.35;3.13;;;;;;;3.19;71.63;102470.56;5121561;27;20016;-62
2023/05/03 03:29:39;;;;;;;9.73;3.85;;;;;;;3.20;71.65;102477.53;5110909;27;20027;-62
2023/05/03 03:32:04;;;;;;;12.52;3.38;;;;;;;3.21;71.73;102474.09;5114623;27;20039;-62
2023/05/03 03:34:31;;;;;;;10.05;3.78;;;;;;;3.15;71.84;102474.00;5113573;27;20051;-62
2023/05/03 03:36:56;;;;;;;6.68;3.50;;;;;;;3.05;71.86;102473.88;5120256;27;20375;-62
2023/05/03 03:39:21;;;;;;;8.80;4.15;;;;;;;3.00;72.46;102474.69;5106569;28;20024;-62
2023/05/03 03:41:47;;;;;;;10.95;3.95;;;;;;;2.99;72.75;102479.03;5112296;27;20036;-62
2023/05/03 03:44:12;;;;;;;15.93;5.38;;;;;;;3.05;72.40;102478.22;5113601;27;20031;-62
2023/05/03 03:46:37;;;;;;;7.72;4.68;;;;;;;2.98;72.07;102474.66;5113954;28;20116;-62
2023/05/03 03:49:03;;;;;;;11.90;3.42;;;;;;;2.93;72.47;102484.19;5112890;28;20031;-62
2023/05/03 03:51:28;;;;;;;10.70;3.72;;;;;;;2.88;72.46;102486.72;5124887;27;20027;-62
2023/05/03 03:53:54;;;;;;;12.52;3.88;;;;;;;2.88;72.82;102481.50;5113558;28;20046;-62
2023/05/03 03:56:20;;;;;;;7.03;3.50;;;;;;;2.86;72.54;102483.22;5114288;28;20039;-62
2023/05/03 03:58:46;;;;;;;8.68;3.58;;;;;;;2.97;73.13;102493.78;5116060;27;20034;-62
2023/05/03 04:01:11;;;;;;;11.32;4.10;;;;;;;2.92;73.06;102487.63;5121127;27;20011;-62
2023/05/03 04:03:36;;;;;;;10.05;3.83;;;;;;;2.95;72.40;102492.91;5112879;28;20066;-62
2023/05/03 04:06:02;;;;;;;17.13;4.53;;;;;;;2.88;72.64;102491.06;5116752;27;20339;-62
2023/05/03 04:08:27;;;;;;;17.13;4.20;;;;;;;2.93;72.76;102499.84;5111301;27;20104;-62
2023/05/03 04:10:52;;;;;;;9.20;4.03;;;;;;;3.00;72.08;102496.44;5113895;27;20020;-61
2023/05/03 04:13:18;;;;;;;10.05;4.30;;;;;;;3.03;72.67;102496.50;5108255;27;20028;-62
2023/05/03 04:15:44;;;;;;;16.55;3.97;;;;;;;3.02;72.54;102506.94;5101672;28;20032;-62
2023/05/03 04:18:10;;;;;;;9.30;4.55;;;;;;;3.04;72.33;102506.09;5097506;28;20544;-61
2023/05/03 04:20:36;;;;;;;17.48;3.88;;;;;;;3.13;72.77;102503.59;5108937;28;20027;-62
2023/05/03 04:23:01;;;;;;;11.40;4.45;;;;;;;3.09;72.83;102517.50;5103845;28;20115;-62
2023/05/03 04:25:26;;;;;;;8.50;4.28;;;;;;;3.18;72.52;102515.84;5101899;28;20103;-62
2023/05/03 04:27:52;;;;;;;9.90;4.00;;;;;;;3.24;72.21;102522.03;5103766;28;20051;-62
2023/05/03 04:30:18;;;;;;;17.20;4.57;;;;;;;3.31;72.28;102520.38;5098818;28;20356;-62
2023/05/03 04:32:44;;;;;;;12.07;3.90;;;;;;;3.39;72.07;102537.03;5085989;28;20348;-62
2023/05/03 04:35:11;;;;;;;16.35;4.43;;;;;;;3.51;72.06;102524.97;5101760;28;20024;-62
2023/05/03 04:37:37;;;;;;;10.25;3.67;;;;;;;3.59;71.50;102526.81;5102962;28;20040;-62
2023/05/03 04:40:08;;;;;;;9.75;5.10;;;;;;;3.61;71.59;102529.44;5102343;28;20051;-62
2023/05/03 04:42:35;;;;;;;13.02;3.72;;;;;;;3.69;71.63;102533.03;5133624;27;20049;-62
2023/05/03 04:45:02;;;;;;;8.35;4.32;;;;;;;3.80;70.29;102533.16;5135040;27;20085;-61
2023/05/03 04:47:28;;;;;;;7.00;4.20;;;;;;;3.95;69.74;102529.84;5106358;28;20027;-61
2023/05/03 04:49:53;;;;;;;7.35;3.85;;;;;;;3.95;69.90;102532.44;5093387;28;20028;-61
2023/05/03 04:52:19;;;;;;;9.65;3.35;;;;;;;4.05;69.92;102534.28;5103615;28;20027;-63
2023/05/03 04:54:44;;;;;;;8.75;3.75;;;;;;;4.05;70.03;102539.53;5104472;28;20024;-62
2023/05/03 04:57:10;;;;;;;11.10;4.00;;;;;;;4.16;69.95;102537.88;5112265;28;20027;-61
2023/05/03 04:59:36;;;;;;;17.73;3.75;;;;;;;4.20;68.73;102539.69;5106762;28;20486;-61
2023/05/03 05:02:01;;;;;;;11.48;4.68;;;;;;;4.15;69.57;102541.38;5098242;28;20447;-61
2023/05/03 05:04:26;;;;;;;12.75;4.50;;;;;;;4.19;69.81;102537.91;5101582;28;20466;-61
2023/05/03 05:06:53;;;;;;;7.47;4.80;;;;;;;4.35;68.73;102545.94;5109915;28;20028;-61
2023/05/03 05:09:23;;;;;;;17.70;5.80;;;;;;;4.35;68.22;102543.31;5095094;28;20027;-63
2023/05/03 05:11:48;;;;;;;18.23;4.50;;;;;;;4.41;68.38;102544.25;5105297;28;20058;-62
2023/05/03 05:14:14;;;;;;;10.50;4.03;;;;;;;4.41;68.53;102543.34;5106950;27;20027;-62
2023/05/03 05:16:39;;;;;;;5.30;3.65;;;;;;;4.46;68.02;102536.41;5120729;28;20039;-62
2023/05/03 05:19:05;;;;;;;8.70;4.05;;;;;;;4.51;68.20;102544.28;5118682;28;20102;-63
2023/05/03 05:21:31;;;;;;;8.48;5.13;;;;;;;4.52;67.96;102549.53;5096365;28;20096;-62
2023/05/03 05:23:56;;;;;;;8.80;4.18;;;;;;;4.62;68.20;102541.78;5108151;27;20028;-62
2023/05/03 05:26:21;;;;;;;13.18;4.20;;;;;;;4.66;67.60;102554.00;5097624;28;20028;-62
2023/05/03 05:28:47;;;;;;;8.13;3.80;;;;;;;4.64;67.87;102546.13;5102180;28;20126;-62
2023/05/03 05:31:12;;;;;;;10.10;4.47;;;;;;;4.76;67.77;102550.63;5110452;28;20344;-62
2023/05/03 05:33:37;;;;;;;11.57;4.50;;;;;;;4.86;67.03;102548.94;5112153;28;20057;-62
2023/05/03 05:36:04;;;;;;;20.33;4.95;;;;;;;4.93;67.30;102559.44;5100921;28;20111;-62
2023/05/03 05:38:29;;;;;;;11.70;3.78;;;;;;;5.05;66.25;102563.03;5103154;28;20095;-64
2023/05/03 05:40:55;;;;;;;10.88;4.10;;;;;;;5.10;65.73;102553.44;5093577;28;20594;-62
2023/05/03 05:43:20;;;;;;;11.13;3.97;;;;;;;5.21;66.08;102557.00;5104869;28;20111;-62
2023/05/03 05:45:46;;;;;;;12.32;4.47;;;;;;;5.33;65.84;102559.69;5092459;28;20028;-62
2023/05/03 05:48:11;;;;;;;7.13;4.38;;;;;;;5.36;65.69;102568.44;5113805;28;20024;-63
2023/05/03 05:50:36;;;;;;;11.45;3.50;;;;;;;5.32;66.34;102563.19;5112020;28;20107;-62
2023/05/03 05:53:02;;;;;;;10.77;3.88;;;;;;;5.35;65.31;102564.97;5112570;28;20635;-62
2023/05/03 05:55:27;;;;;;;9.95;4.28;;;;;;;5.54;64.77;102558.03;5116695;28;20046;-62
2023/05/03 05:57:53;;;;;;;10.45;4.45;;;;;;;5.56;63.73;102563.28;5114702;27;20355;-62
2023/05/03 06:00:20;;;;;;;10.65;4.13;;;;;;;5.67;64.09;102569.47;5097769;28;20031;-62
2023/05/03 06:02:46;;;;;;;22.80;5.63;;;;;;;5.80;62.16;102567.75;5101991;28;20051;-62
2023/05/03 06:05:11;;;;;;;6.65;3.35;;;;;;;5.93;62.86;102576.53;5113709;28;20159;-62
2023/05/03 06:07:37;;;;;;;10.13;3.35;;;;;;;5.93;62.03;102577.41;5114431;28;20024;-62
2023/05/03 06:10:03;;;;;;;10.90;3.40;;;;;;;6.07;60.67;102582.75;5113159;28;20046;-62
2023/05/03 06:12:28;;;;;;;8.10;3.42;;;;;;;6.11;60.61;102581.00;5114125;28;20031;-62
2023/05/03 06:14:54;;;;;;;12.00;3.35;;;;;;;6.14;60.86;102578.38;5099804;28;20043;-62
2023/05/03 06:17:21;;;;;;;12.00;3.10;;;;;;;6.16;60.72;102580.16;5095402;28;20071;-62
2023/05/03 06:19:48;;;;;;;9.90;3.13;;;;;;;6.24;60.50;102578.41;5101592;28;20028;-62
2023/05/03 06:22:13;;;;;;;5.60;3.50;;;;;;;6.27;60.79;102582.78;5097253;28;20069;-62
2023/05/03 06:24:39;;;;;;;9.20;3.17;;;;;;;6.41;60.57;102591.56;5099325;28;20520;-62
2023/05/03 06:27:04;;;;;;;12.02;3.17;;;;;;;6.55;60.11;102583.69;5101998;28;20102;-62
2023/05/03 06:29:30;;;;;;;8.10;3.05;;;;;;;6.58;59.50;102582.81;5100684;28;20043;-62
2023/05/03 06:31:55;;;;;;;9.13;3.60;;;;;;;6.67;59.88;102582.81;5100898;28;20161;-62
2023/05/03 06:34:21;;;;;;;8.88;3.33;;;;;;;6.68;59.60;102589.81;5110113;27;20607;-62
2023/05/03 06:36:47;;;;;;;6.60;2.83;;;;;;;6.68;58.97;102589.81;5114980;27;20126;-63
2023/05/03 06:39:12;;;;;;;20.92;3.50;;;;;;;6.73;59.06;102593.31;5113482;27;20164;-62
2023/05/03 06:41:38;;;;;;;7.43;3.00;;;;;;;6.77;58.64;102595.06;5105572;27;20088;-62
2023/05/03 06:44:03;;;;;;;14.82;3.95;;;;;;;6.83;59.04;102588.94;5104980;28;20024;-63
2023/05/03 06:46:29;;;;;;;7.25;2.40;;;;;;;6.96;59.21;102589.78;5095997;28;20451;-61
2023/05/03 06:48:56;;;;;;;8.27;2.35;;;;;;;6.98;58.49;102590.69;5107958;28;20035;-62
2023/05/03 06:51:26;;;;;;;12.35;2.38;;;;;;;7.10;57.64;102588.03;5107027;28;20032;-62
2023/05/03 06:53:53;;;;;;;7.23;3.10;;;;;;;7.08;57.58;102584.53;5101864;28;20035;-62
2023/05/03 06:56:18;;;;;;;5.93;2.40;;;;;;;7.20;58.09;102588.88;5107651;27;20064;-61
2023/05/03 06:58:44;;;;;;;8.13;3.28;;;;;;;7.42;57.86;102594.97;5115114;27;20137;-62
2023/05/03 07:01:09;;;;;;;11.45;3.08;;;;;;;7.40;56.26;102591.44;5102645;28;20027;-61
2023/05/03 07:03:36;;;;;;;12.35;2.33;;;;;;;7.42;54.33;102589.72;5111550;27;20016;-61
2023/05/03 07:06:02;;;;;;;9.25;2.13;;;;;;;7.56;55.15;102596.69;5119845;27;20057;-62
2023/05/03 07:08:28;;;;;;;9.00;2.85;;;;;;;7.40;54.95;102591.44;5106527;27;20042;-62
2023/05/03 07:10:53;;;;;;;9.57;3.60;;;;;;;7.49;54.95;102591.44;5102333;27;20027;-62
2023/05/03 07:13:18;;;;;;;11.35;3.17;;;;;;;7.58;55.89;102594.91;5112948;27;20030;-61
2023/05/03 07:15:44;;;;;;;9.50;2.90;;;;;;;7.67;54.35;102589.63;5103057;27;20028;-61
2023/05/03 07:18:10;;;;;;;8.75;2.38;;;;;;;7.58;54.35;102579.13;5109196;27;20042;-62
2023/05/03 07:20:35;;;;;;;4.93;2.83;;;;;;;7.61;54.70;102584.38;5116398;27;20088;-62
2023/05/03 07:23:01;;;;;;;14.40;2.60;;;;;;;7.66;54.27;102590.50;5116026;27;20121;-62
2023/05/03 07:25:26;;;;;;;7.85;2.35;;;;;;;7.71;53.84;102586.09;5106908;28;20035;-62
2023/05/03 07:27:51;;;;;;;6.03;2.35;;;;;;;7.89;53.84;102586.00;5102615;27;20065;-61
2023/05/03 07:30:17;;;;;;;5.88;2.33;;;;;;;8.01;53.16;102584.16;5111375;28;20529;-62
2023/05/03 07:32:43;;;;;;;6.28;2.42;;;;;;;8.28;51.93;102589.25;5111685;27;20049;-62
2023/05/03 07:35:09;;;;;;;7.78;2.45;;;;;;;8.13;51.89;102584.09;5104183;28;20040;-62
2023/05/03 07:37:37;;;;;;;6.22;2.25;;;;;;;8.10;51.71;102581.50;5109523;27;20043;-62
2023/05/03 07:40:05;;;;;;;8.13;2.47;;;;;;;8.08;51.62;102586.75;5111064;28;20032;-62
2023/05/03 07:42:31;;;;;;;11.40;2.55;;;;;;;8.36;51.61;102580.44;5104953;28;20024;-62
2023/05/03 07:44:56;;;;;;;12.98;3.33;;;;;;;8.23;49.52;102574.38;5100574;28;20038;-62
2023/05/03 07:47:22;;;;;;;6.63;2.55;;;;;;;8.33;49.13;102572.56;5092115;28;20019;-62
2023/05/03 07:49:49;;;;;;;9.70;2.47;;;;;;;8.66;50.58;102573.22;5095688;27;20051;-62
2023/05/03 07:52:15;;;;;;;8.32;2.20;;;;;;;8.85;49.19;102573.94;5107316;27;20019;-61
2023/05/03 07:54:41;;;;;;;4.00;2.67;;;;;;;8.77;49.38;102571.38;5099318;27;20102;-62
2023/05/03 07:57:07;;;;;;;4.75;2.47;;;;;;;9.04;49.93;102572.88;5101341;27;20107;-62
2023/05/03 07:59:32;;;;;;;8.13;2.33;;;;;;;9.12;48.96;102567.50;5111127;27;20106;-60
2023/05/03 08:01:58;;;;;;;10.55;3.72;;;;;;;9.07;50.63;102569.31;5110751;27;20503;-61
2023/05/03 08:04:23;;;;;;;5.85;1.70;;;;;;;9.29;48.77;102570.84;5118983;27;20027;-61
2023/05/03 08:06:49;;;;;;;4.65;1.90;;;;;;;9.34;48.37;102566.38;5111138;27;20439;-61
2023/05/03 08:09:15;;;;;;;6.18;3.67;;;;;;;9.40;48.29;102567.19;5089941;28;20028;-61
2023/05/03 08:11:40;;;;;;;6.45;2.20;;;;;;;9.12;49.19;102572.75;5107641;27;20423;-62
2023/05/03 08:14:06;;;;;;;3.40;2.17;;;;;;;8.93;49.59;102578.25;5121892;27;20356;-62
2023/05/03 08:16:31;;;;;;;7.45;2.10;;;;;;;9.02;49.26;102573.75;5114030;27;20114;-61
2023/05/03 08:18:57;;;;;;;11.35;2.83;;;;;;;9.42;49.70;102566.28;5104599;27;20106;-62
2023/05/03 08:21:23;;;;;;;9.63;2.28;;;;;;;9.43;49.63;102569.78;5125762;27;20027;-61
2023/05/03 08:23:49;;;;;;;7.45;3.10;;;;;;;9.78;48.61;102574.63;5123867;27;20031;-61
2023/05/03 08:26:15;;;;;;;8.82;2.47;;;;;;;10.03;47.84;102564.59;5105878;27;20027;-61
2023/05/03 08:28:41;;;;;;;8.60;2.13;;;;;;;9.99;47.16;102562.00;5106625;27;20059;-61
2023/05/03 08:31:06;;;;;;;5.75;1.90;;;;;;;10.24;47.58;102567.81;5106404;27;20035;-61
2023/05/03 08:33:32;;;;;;;13.68;3.05;;;;;;;10.22;46.54;102565.19;5114577;27;20042;-60
2023/05/03 08:35:57;;;;;;;8.48;2.03;;;;;;;10.43;46.33;102561.38;5104223;27;20056;-61
2023/05/03 08:38:23;;;;;;;9.80;2.17;;;;;;;10.39;46.61;102575.53;5100464;28;20104;-61
2023/05/03 08:40:50;;;;;;;9.55;2.10;;;;;;;9.91;47.27;102570.06;5118939;27;20083;-60
2023/05/03 08:43:19;;;;;;;7.07;2.03;;;;;;;9.82;47.72;102570.19;5115650;27;20124;-60
2023/05/03 08:45:44;;;;;;;8.32;2.35;;;;;;;9.80;47.83;102575.47;5122322;27;20038;-60
2023/05/03 08:48:10;;;;;;;6.38;2.30;;;;;;;9.85;47.40;102578.06;5109692;27;20026;-60
2023/05/03 08:50:40;;;;;;;8.02;3.22;;;;;;;9.69;48.90;102580.94;5109334;27;20515;-61
2023/05/03 08:53:09;;;;;;;9.98;2.80;;;;;;;9.90;47.77;102576.22;5103634;27;20173;-62
2023/05/03 08:55:36;;;;;;;8.95;2.38;;;;;;;10.20;47.19;102569.66;5095334;27;20085;-62
2023/05/03 08:58:09;;;;;;;7.38;2.10;;;;;;;10.29;46.88;102581.84;5103046;28;20024;-60
2023/05/03 09:00:34;;;;;;;5.88;2.42;;;;;;;10.29;47.17;102581.84;5099217;27;20375;-60
2023/05/03 09:03:00;;;;;;;11.75;3.28;;;;;;;10.14;48.02;102582.09;5099109;27;20024;-61
2023/05/03 09:05:34;;;;;;;11.95;2.28;;;;;;;9.79;48.74;102580.78;5105728;27;20566;-63
2023/05/03 09:08:10;;;;;;;7.35;1.73;;;;;;;9.76;49.08;102588.75;5099993;28;20016;-62
2023/05/03 09:10:40;;;;;;;10.52;2.20;;;;;;;10.15;47.72;102589.09;5113078;27;20050;-63
2023/05/03 09:13:06;;;;;;;5.57;2.00;;;;;;;9.97;47.79;102585.84;5124843;27;20015;-61
2023/05/03 09:15:32;;;;;;;10.70;2.88;;;;;;;9.96;47.28;102588.50;5093996;28;20019;-62
2023/05/03 09:18:16;;;;;;;8.40;2.10;;;;;;;10.10;47.67;102581.22;5118689;27;20415;-61
2023/05/03 09:20:49;;;;;;;7.80;2.45;;;;;;;10.02;47.04;102584.00;5102051;28;20035;-61
2023/05/03 09:23:15;;;;;;;10.77;3.10;;;;;;;9.91;46.82;102591.19;5098137;27;20032;-61
2023/05/03 09:25:46;;;;;;;7.53;2.33;;;;;;;10.01;47.59;102581.38;5096985;28;20041;-61
2023/05/03 09:28:15;;;;;;;6.15;2.33;;;;;;;10.14;46.93;102582.94;5134475;27;20032;-61
2023/05/03 09:30:42;;;;;;;6.28;2.22;;;;;;;10.60;45.42;102581.38;5112651;27;20432;-61
2023/05/03 09:33:07;;;;;;;6.88;1.88;;;;;;;10.53;45.37;102579.75;5101893;28;20028;-62
2023/05/03 09:35:33;;;;;;;6.30;2.10;;;;;;;10.22;44.02;102580.19;5083517;28;20056;-62
2023/05/03 09:38:00;;;;;;;7.35;3.38;;;;;;;10.26;44.66;102581.88;5103366;28;20035;-61
2023/05/03 09:40:26;;;;;;;7.32;2.15;;;;;;;10.36;44.43;102575.56;5105704;28;20169;-62
2023/05/03 09:43:10;;;;;;;6.65;1.95;;;;;;;10.20;44.99;102576.69;5115639;28;20023;-59
2023/05/03 09:45:36;;;;;;;6.80;2.22;;;;;;;10.28;45.13;102580.06;5113591;28;20019;-61
2023/05/03 09:48:03;;;;;;;5.10;2.10;;;;;;;10.59;44.74;102575.25;5114821;27;20065;-60
2023/05/03 09:50:33;;;;;;;5.00;2.67;;;;;;;11.02;45.69;102582.41;5087777;28;20020;-61
2023/05/03 09:53:02;;;;;;;6.78;2.15;;;;;;;11.36;44.28;102578.22;5093562;28;20028;-61
2023/05/03 09:55:30;;;;;;;9.35;2.40;;;;;;;11.12;44.83;102575.16;5100627;28;20053;-61
2023/05/03 09:57:57;;;;;;;14.60;2.60;;;;;;;11.65;45.23;102574.97;5115350;27;20461;-62
2023/05/03 10:00:24;;;;;;;9.82;2.90;;;;;;;11.64;43.43;102580.31;5108930;28;20106;-61
2023/05/03 10:02:52;;;;;;;9.20;2.58;;;;;;;11.69;43.50;102591.72;5109495;28;20062;-61
2023/05/03 10:05:19;;;;;;;7.45;1.95;;;;;;;11.35;43.82;102577.38;5112062;28;20100;-63
2023/05/03 10:07:48;;;;;;;18.73;2.70;;;;;;;11.45;43.43;102572.75;5104775;28;20030;-62
2023/05/03 10:10:13;;;;;;;7.03;1.88;;;;;;;11.89;42.81;102576.25;5110707;28;20023;-61
2023/05/03 10:12:39;;;;;;;5.78;2.38;;;;;;;12.02;41.54;102576.00;5114222;28;20099;-60
2023/05/03 10:15:07;;;;;;;9.32;2.33;;;;;;;11.74;42.46;102573.94;5102295;28;20489;-61
2023/05/03 10:17:36;;;;;;;6.35;2.28;;;;;;;11.85;42.17;102576.34;5106337;28;20120;-62
2023/05/03 10:20:08;;;;;;;10.02;3.33;;;;;;;11.53;42.52;102573.47;5104363;27;20046;-62
2023/05/03 10:23:03;;;;;;;4.07;2.28;;;;;;;12.45;42.27;102573.19;5103653;28;20081;-61
2023/05/03 10:25:28;;;;;;;5.45;2.60;;;;;;;12.36;41.49;102573.44;5108258;28;20035;-62
2023/05/03 10:28:01;;;;;;;6.68;2.65;;;;;;;12.58;41.96;102581.72;5111255;28;20031;-61
2023/05/03 10:30:33;;;;;;;10.40;4.50;;;;;;;12.76;40.03;102579.53;5105656;28;20540;-62
2023/05/03 10:33:20;;;;;;;6.32;2.50;;;;;;;12.59;40.90;102575.53;5096596;28;20024;-61
2023/05/03 10:35:51;;;;;;;8.38;2.00;;;;;;;12.37;41.86;102569.00;5095225;27;20040;-62
2023/05/03 10:38:23;;;;;;;10.73;2.63;;;;;;;12.21;41.15;102561.44;5097787;28;20440;-62
2023/05/03 10:40:53;;;;;;;9.05;2.35;;;;;;;12.66;42.09;102560.31;5093682;28;20043;-61
2023/05/03 10:43:28;;;;;;;9.32;2.40;;;;;;;12.69;42.23;102554.06;5107339;28;20019;-61
2023/05/03 10:46:03;;;;;;;8.05;3.80;;;;;;;12.70;41.86;102566.41;5104093;28;20157;-61
2023/05/03 10:48:30;;;;;;;8.65;2.92;;;;;;;11.54;43.38;102561.97;5103290;28;20016;-62
2023/05/03 10:50:57;;;;;;;8.82;2.42;;;;;;;13.23;40.65;102557.00;5086112;28;20036;-61
2023/05/03 10:53:37;;;;;;;10.98;2.97;;;;;;;14.12;37.92;102557.94;5102982;28;20435;-62
2023/05/03 10:56:11;;;;;;;13.02;2.75;;;;;;;15.38;35.38;102555.41;5086731;28;20452;-61
2023/05/03 10:58:37;;;;;;;4.00;2.13;;;;;;;16.00;34.27;102550.41;5098929;27;20099;-61
2023/05/03 11:01:09;;;;;;;13.30;3.35;;;;;;;17.14;32.47;102545.63;5103961;27;20027;-60
2023/05/03 11:04:07;;;;;;;7.05;2.53;;;;;;;17.29;32.76;102544.06;5098974;28;20024;-61
2023/05/03 11:06:37;;;;;;;4.57;2.00;;;;;;;16.78;31.97;102538.28;5103322;27;20028;-60
2023/05/03 11:09:05;;;;;;;5.53;1.87;;;;;;;16.62;30.99;102549.63;5084659;28;20394;-60
2023/05/03 11:11:31;;;;;;;8.80;1.90;;;;;;;17.18;30.24;102536.53;5104761;28;20309;-61
2023/05/03 11:13:57;;;;;;;5.25;1.90;;;;;;;17.16;30.54;102543.75;5104536;28;20106;-59
2023/05/03 11:16:23;;;;;;;9.82;2.22;;;;;;;18.71;28.71;102544.31;5104018;27;20026;-59
2023/05/03 11:18:50;;;;;;;10.35;2.50;;;;;;;19.00;28.49;102554.50;5105686;28;20039;-62
2023/05/03 11:21:15;;;;;;;12.40;2.42;;;;;;;18.06;30.25;102546.69;5103851;28;20073;-59
2023/05/03 11:23:42;;;;;;;5.63;2.00;;;;;;;18.09;31.05;102551.03;5101976;27;20043;-59
2023/05/03 11:26:08;;;;;;;8.35;1.70;;;;;;;17.11;31.73;102538.63;5102394;27;20030;-60
2023/05/03 11:28:36;;;;;;;6.00;1.92;;;;;;;18.40;30.31;102536.97;5104251;27;20059;-60
2023/05/03 11:31:02;;;;;;;4.57;1.60;;;;;;;18.85;29.70;102535.59;5105304;27;20103;-59
2023/05/03 11:33:30;;;;;;;5.43;1.63;;;;;;;19.95;26.71;102529.66;5102253;27;20114;-60
2023/05/03 11:35:55;;;;;;;6.47;2.30;;;;;;;19.74;28.65;102534.38;5107601;27;20100;-60
2023/05/03 11:38:21;;;;;;;4.40;1.90;;;;;;;18.99;28.91;102529.50;5113359;27;20023;-59
2023/05/03 11:40:46;;;;;;;12.02;1.98;;;;;;;19.54;28.35;102525.63;5125473;27;20031;-59
2023/05/03 11:43:12;;;;;;;7.15;1.50;;;;;;;20.67;26.54;102525.44;5106267;27;20124;-60
2023/05/03 11:45:39;;;;;;;5.20;2.08;;;;;;;19.57;27.65;102517.44;5114606;27;20037;-60
2023/05/03 11:48:05;;;;;;;9.13;1.95;;;;;;;19.24;28.10;102515.66;5115334;28;20031;-60
2023/05/03 11:50:54;;;;;;;5.25;1.65;;;;;;;19.90;27.53;102513.81;5108341;28;20012;-59
2023/05/03 11:53:20;;;;;;;4.63;1.80;;;;;;;21.16;25.56;102518.84;5087518;28;20406;-59
2023/05/03 11:55:47;;;;;;;7.18;2.47;;;;;;;21.16;25.29;102515.31;5101059;27;20059;-59
2023/05/03 11:58:15;;;;;;;8.05;2.00;;;;;;;21.31;25.06;102511.66;5108819;27;20047;-59
2023/05/03 12:00:45;;;;;;;3.35;1.55;;;;;;;20.66;25.85;102523.72;5111213;28;20023;-59
2023/05/03 12:03:16;;;;;;;6.28;2.10;;;;;;;17.32;30.36;102526.09;5104894;27;20039;-59
2023/05/03 12:05:42;;;;;;;7.57;1.90;;;;;;;17.16;30.70;102514.38;5119428;27;20052;-59
2023/05/03 12:08:10;;;;;;;4.63;1.48;;;;;;;19.12;29.10;102516.31;5103548;27;20356;-59
2023/05/03 12:10:35;;;;;;;6.30;1.85;;;;;;;20.56;26.35;102517.13;5104909;27;20030;-59
2023/05/03 12:13:01;;;;;;;9.60;2.25;;;;;;;21.02;24.92;102513.47;5124036;27;20027;-60
2023/05/03 12:15:33;;;;;;;4.57;2.20;;;;;;;20.20;25.09;102521.03;5116600;27;20399;-61
2023/05/03 12:18:01;;;;;;;12.40;2.03;;;;;;;20.29;25.12;102509.75;5114639;27;20036;-60
2023/05/03 12:20:29;;;;;;;5.93;2.10;;;;;;;21.61;23.69;102500.78;5097224;27;20061;-58
2023/05/03 12:23:06;;;;;;;6.13;1.60;;;;;;;21.22;23.48;102498.81;5092687;27;20601;-60
2023/05/03 12:25:32;;;;;;;7.47;1.52;;;;;;;19.01;25.61;102507.97;5101086;27;20475;-60
2023/05/03 12:28:00;;;;;;;10.50;2.42;;;;;;;18.96;26.79;102510.94;5080260;28;20031;-60
2023/05/03 12:30:25;;;;;;;4.32;1.45;;;;;;;20.76;25.91;102496.28;5082923;28;20054;-60
2023/05/03 12:32:51;;;;;;;18.17;7.75;;;;;;;19.79;27.56;102502.84;5098105;28;20068;-59
2023/05/03 12:35:19;;;;;;;8.00;2.38;;;;;;;21.43;26.38;102494.72;5103914;27;20027;-60
2023/05/03 12:37:45;;;;;;;9.68;2.47;;;;;;;22.22;25.99;102494.13;5094416;28;20540;-60
2023/05/03 12:40:11;;;;;;;12.20;2.95;;;;;;;21.21;25.23;102492.53;5112245;27;20052;-60
2023/05/03 12:42:37;;;;;;;8.40;2.00;;;;;;;19.82;27.47;102505.34;5105955;27;20054;-60
2023/05/03 12:45:03;;;;;;;14.57;3.00;;;;;;;21.45;25.70;102503.56;5101826;28;20039;-59
2023/05/03 12:47:28;;;;;;;5.68;1.90;;;;;;;21.03;25.46;102510.69;5087836;28;20096;-60
2023/05/03 12:49:54;;;;;;;11.18;1.73;;;;;;;21.25;25.75;102503.97;5112902;27;20046;-59
2023/05/03 12:52:20;;;;;;;4.93;2.00;;;;;;;22.48;23.91;102501.31;5120657;27;20079;-60
2023/05/03 12:54:46;;;;;;;9.98;2.55;;;;;;;21.63;25.34;102503.38;5124405;27;20062;-60
2023/05/03 12:57:13;;;;;;;7.47;2.13;;;;;;;21.20;25.52;102489.94;5107114;27;20066;-60
2023/05/03 12:59:39;;;;;;;8.77;1.63;;;;;;;21.54;25.21;102493.19;5086969;28;20064;-60
2023/05/03 13:02:05;;;;;;;10.90;2.45;;;;;;;21.94;23.99;102486.06;5113924;27;20043;-60